createdAt,value
2017-06-01T00:00:11.559Z,0
2017-06-01T00:01:11.235Z,0
2017-06-01T00:02:11.536Z,0
2017-06-01T00:03:11.885Z,0
2017-06-01T00:04:11.508Z,0
2017-06-01T00:05:11.491Z,0
2017-06-01T00:06:11.798Z,0
2017-06-01T00:07:11.474Z,0
2017-06-01T00:08:11.464Z,0
2017-06-01T00:09:12.091Z,0
2017-06-01T00:10:10.806Z,0
2017-06-01T00:11:12.053Z,0
2017-06-01T00:12:11.417Z,0
2017-06-01T00:13:11.781Z,0
2017-06-01T00:14:11.275Z,0
2017-06-01T00:15:11.753Z,0
2017-06-01T00:16:11.680Z,0
2017-06-01T00:17:11.154Z,0
2017-06-01T00:18:10.760Z,0
2017-06-01T00:19:11.323Z,0
2017-06-01T00:20:11.321Z,0
2017-06-01T00:21:11.624Z,0
2017-06-01T00:22:11.301Z,0
2017-06-01T00:23:11.288Z,0
2017-06-01T00:24:11.594Z,0
2017-06-01T00:25:11.259Z,0
2017-06-01T00:26:11.246Z,0
2017-06-01T00:27:11.865Z,0
2017-06-01T00:28:11.572Z,0
2017-06-01T00:29:11.520Z,0
2017-06-01T00:30:11.822Z,0
2017-06-01T00:31:10.555Z,0
2017-06-01T00:32:11.174Z,0
2017-06-01T00:33:11.526Z,0
2017-06-01T00:34:11.468Z,0
2017-06-01T00:35:11.461Z,0
2017-06-01T00:36:10.817Z,0
2017-06-01T00:37:11.425Z,0
2017-06-01T00:38:11.728Z,0
2017-06-01T00:39:10.772Z,0
2017-06-01T00:40:10.762Z,0
2017-06-01T00:41:11.058Z,0
2017-06-01T00:42:11.051Z,0
2017-06-01T00:43:11.353Z,0
2017-06-01T00:44:10.717Z,0
2017-06-01T00:45:10.702Z,0
2017-06-01T00:46:10.690Z,0
2017-06-01T00:47:10.992Z,0
2017-06-01T00:48:11.628Z,0
2017-06-01T00:49:11.341Z,0
2017-06-01T00:50:10.949Z,0
2017-06-01T00:51:10.939Z,0
2017-06-01T00:52:11.244Z,0
2017-06-01T00:53:11.226Z,0
2017-06-01T00:54:11.532Z,0
2017-06-01T00:55:10.887Z,0
2017-06-01T00:56:11.187Z,0
2017-06-01T00:57:11.494Z,0
2017-06-01T00:58:10.222Z,0
2017-06-01T00:59:11.202Z,0
2017-06-01T01:00:10.830Z,0
2017-06-01T01:01:10.827Z,0
2017-06-01T01:02:10.799Z,0
2017-06-01T01:03:10.788Z,0
2017-06-01T01:04:11.441Z,0
2017-06-01T01:05:11.079Z,0
2017-06-01T01:06:10.437Z,0
2017-06-01T01:07:10.749Z,0
2017-06-01T01:08:10.409Z,0
2017-06-01T01:09:11.024Z,0
2017-06-01T01:10:11.009Z,0
2017-06-01T01:11:10.687Z,0
2017-06-01T01:12:10.990Z,0
2017-06-01T01:13:10.663Z,0
2017-06-01T01:14:10.957Z,0
2017-06-01T01:15:10.632Z,0
2017-06-01T01:16:10.937Z,0
2017-06-01T01:17:10.293Z,0
2017-06-01T01:18:10.920Z,0
2017-06-01T01:19:10.609Z,0
2017-06-01T01:20:10.891Z,0
2017-06-01T01:21:10.560Z,0
2017-06-01T01:22:10.864Z,0
2017-06-01T01:23:10.860Z,0
2017-06-01T01:24:10.536Z,0
2017-06-01T01:25:10.819Z,0
2017-06-01T01:26:10.871Z,0
2017-06-01T01:27:10.483Z,0
2017-06-01T01:28:10.805Z,0
2017-06-01T01:29:10.455Z,0
2017-06-01T01:30:10.446Z,0
2017-06-01T01:31:11.058Z,0
2017-06-01T01:32:10.102Z,0
2017-06-01T01:33:10.409Z,0
2017-06-01T01:34:10.389Z,0
2017-06-01T01:35:10.071Z,0
2017-06-01T01:36:10.369Z,0
2017-06-01T01:37:10.353Z,0
2017-06-01T01:38:10.336Z,0
2017-06-01T01:39:10.006Z,0
2017-06-01T01:40:10.001Z,0
2017-06-01T01:41:10.611Z,0
2017-06-01T01:42:10.603Z,0
2017-06-01T01:43:09.959Z,0
2017-06-01T01:44:10.261Z,0
2017-06-01T01:45:10.242Z,0
2017-06-01T01:46:09.916Z,0
2017-06-01T01:47:10.534Z,0
2017-06-01T01:48:10.834Z,0
2017-06-01T01:49:10.193Z,0
2017-06-01T01:50:10.490Z,0
2017-06-01T01:51:10.165Z,0
2017-06-01T01:52:10.467Z,0
2017-06-01T01:53:10.775Z,0
2017-06-01T01:54:10.444Z,0
2017-06-01T01:55:10.429Z,0
2017-06-01T01:56:10.412Z,0
2017-06-01T01:57:09.781Z,0
2017-06-01T01:58:09.777Z,0
2017-06-01T01:59:10.700Z,0
2017-06-01T02:00:10.059Z,0
2017-06-01T02:01:10.695Z,0
2017-06-01T02:02:10.654Z,0
2017-06-01T02:03:09.692Z,0
2017-06-01T02:04:09.997Z,0
2017-06-01T02:05:09.978Z,0
2017-06-01T02:06:09.967Z,0
2017-06-01T02:07:10.271Z,0
2017-06-01T02:08:09.944Z,0
2017-06-01T02:09:09.929Z,0
2017-06-01T02:10:09.923Z,0
2017-06-01T02:11:10.264Z,0
2017-06-01T02:12:09.890Z,0
2017-06-01T02:13:09.877Z,0
2017-06-01T02:14:09.952Z,0
2017-06-01T02:15:10.168Z,0
2017-06-01T02:16:09.836Z,0
2017-06-01T02:17:09.828Z,0
2017-06-01T02:18:10.441Z,0
2017-06-01T02:19:09.858Z,0
2017-06-01T02:20:10.101Z,0
2017-06-01T02:21:09.772Z,0
2017-06-01T02:22:09.755Z,0
2017-06-01T02:23:09.733Z,0
2017-06-01T02:24:10.392Z,0
2017-06-01T02:25:10.097Z,0
2017-06-01T02:26:10.338Z,0
2017-06-01T02:27:09.380Z,0
2017-06-01T02:28:09.360Z,0
2017-06-01T02:29:10.010Z,0
2017-06-01T02:30:10.007Z,0
2017-06-01T02:31:09.633Z,0
2017-06-01T02:32:09.615Z,0
2017-06-01T02:33:10.229Z,0
2017-06-01T02:34:09.297Z,0
2017-06-01T02:35:09.653Z,0
2017-06-01T02:36:10.188Z,0
2017-06-01T02:37:09.550Z,0
2017-06-01T02:38:09.544Z,0
2017-06-01T02:39:09.522Z,0
2017-06-01T02:40:09.817Z,0
2017-06-01T02:41:09.808Z,0
2017-06-01T02:42:10.130Z,0
2017-06-01T02:43:09.464Z,0
2017-06-01T02:44:09.459Z,0
2017-06-01T02:45:09.756Z,0
2017-06-01T02:46:09.118Z,0
2017-06-01T02:47:09.418Z,0
2017-06-01T02:48:09.431Z,0
2017-06-01T02:49:10.014Z,0
2017-06-01T02:50:09.997Z,0
2017-06-01T02:51:09.671Z,0
2017-06-01T02:52:09.650Z,0
2017-06-01T02:53:09.957Z,0
2017-06-01T02:54:09.672Z,0
2017-06-01T02:55:09.616Z,0
2017-06-01T02:56:09.601Z,0
2017-06-01T02:57:08.960Z,0
2017-06-01T02:58:09.571Z,0
2017-06-01T02:59:09.248Z,0
2017-06-01T03:00:09.277Z,0
2017-06-01T03:01:08.606Z,0
2017-06-01T03:02:09.837Z,0
2017-06-01T03:03:09.821Z,0
2017-06-01T03:04:09.805Z,0
2017-06-01T03:05:09.793Z,0
2017-06-01T03:06:09.467Z,0
2017-06-01T03:07:09.147Z,0
2017-06-01T03:08:09.122Z,0
2017-06-01T03:09:09.524Z,0
2017-06-01T03:10:09.435Z,0
2017-06-01T03:11:09.728Z,0
2017-06-01T03:12:09.076Z,0
2017-06-01T03:13:09.370Z,0
2017-06-01T03:14:09.553Z,0
2017-06-01T03:15:09.400Z,0
2017-06-01T03:16:09.021Z,0
2017-06-01T03:17:09.326Z,0
2017-06-01T03:18:09.639Z,0
2017-06-01T03:19:09.602Z,0
2017-06-01T03:20:09.009Z,5
2017-06-01T03:21:09.250Z,5
2017-06-01T03:22:09.247Z,5
2017-06-01T03:23:09.552Z,5
2017-06-01T03:24:09.213Z,5
2017-06-01T03:25:08.897Z,5
2017-06-01T03:26:09.181Z,5
2017-06-01T03:27:08.538Z,5
2017-06-01T03:28:09.475Z,5
2017-06-01T03:29:09.451Z,5
2017-06-01T03:30:09.131Z,5
2017-06-01T03:31:08.490Z,10
2017-06-01T03:32:09.101Z,10
2017-06-01T03:33:09.399Z,10
2017-06-01T03:34:09.070Z,10
2017-06-01T03:35:09.368Z,10
2017-06-01T03:36:08.731Z,10
2017-06-01T03:37:08.714Z,10
2017-06-01T03:38:08.703Z,10
2017-06-01T03:39:08.686Z,10
2017-06-01T03:40:08.674Z,10
2017-06-01T03:41:08.352Z,15
2017-06-01T03:42:08.960Z,15
2017-06-01T03:43:08.636Z,15
2017-06-01T03:44:08.930Z,15
2017-06-01T03:45:08.606Z,15
2017-06-01T03:46:09.219Z,15
2017-06-01T03:47:08.883Z,15
2017-06-01T03:48:08.246Z,15
2017-06-01T03:49:08.541Z,15
2017-06-01T03:50:08.577Z,20
2017-06-01T03:51:08.830Z,20
2017-06-01T03:52:08.814Z,20
2017-06-01T03:53:08.486Z,20
2017-06-01T03:54:08.491Z,20
2017-06-01T03:55:09.096Z,20
2017-06-01T03:56:08.757Z,20
2017-06-01T03:57:08.433Z,20
2017-06-01T03:58:08.739Z,20
2017-06-01T03:59:08.088Z,25
2017-06-01T04:00:08.705Z,25
2017-06-01T04:01:09.002Z,25
2017-06-01T04:02:08.984Z,25
2017-06-01T04:03:08.660Z,25
2017-06-01T04:04:08.646Z,25
2017-06-01T04:05:08.324Z,25
2017-06-01T04:06:08.625Z,25
2017-06-01T04:07:07.969Z,25
2017-06-01T04:08:07.955Z,30
2017-06-01T04:09:08.673Z,30
2017-06-01T04:10:08.241Z,30
2017-06-01T04:11:07.981Z,30
2017-06-01T04:12:08.845Z,30
2017-06-01T04:13:08.513Z,30
2017-06-01T04:14:08.501Z,30
2017-06-01T04:15:07.863Z,30
2017-06-01T04:16:08.472Z,30
2017-06-01T04:17:08.143Z,30
2017-06-01T04:18:08.132Z,30
2017-06-01T04:19:08.119Z,30
2017-06-01T04:20:08.729Z,30
2017-06-01T04:21:08.138Z,35
2017-06-01T04:22:07.793Z,35
2017-06-01T04:23:08.381Z,35
2017-06-01T04:24:08.365Z,35
2017-06-01T04:25:08.675Z,35
2017-06-01T04:26:08.020Z,35
2017-06-01T04:27:08.336Z,35
2017-06-01T04:28:08.321Z,35
2017-06-01T04:29:07.669Z,35
2017-06-01T04:30:08.283Z,35
2017-06-01T04:31:08.320Z,35
2017-06-01T04:32:08.249Z,40
2017-06-01T04:33:07.920Z,40
2017-06-01T04:34:08.222Z,40
2017-06-01T04:35:07.896Z,40
2017-06-01T04:36:07.883Z,40
2017-06-01T04:37:08.174Z,40
2017-06-01T04:38:08.164Z,40
2017-06-01T04:39:08.463Z,40
2017-06-01T04:40:08.157Z,40
2017-06-01T04:41:07.808Z,40
2017-06-01T04:42:07.845Z,40
2017-06-01T04:43:07.158Z,40
2017-06-01T04:44:08.086Z,45
2017-06-01T04:45:08.070Z,45
2017-06-01T04:46:08.363Z,45
2017-06-01T04:47:07.728Z,45
2017-06-01T04:48:07.711Z,45
2017-06-01T04:49:08.013Z,45
2017-06-01T04:50:07.369Z,45
2017-06-01T04:51:07.354Z,45
2017-06-01T04:52:08.017Z,45
2017-06-01T04:53:07.641Z,45
2017-06-01T04:54:07.324Z,45
2017-06-01T04:55:07.036Z,45
2017-06-01T04:56:07.602Z,50
2017-06-01T04:57:06.953Z,50
2017-06-01T04:58:07.885Z,50
2017-06-01T04:59:07.243Z,50
2017-06-01T05:00:07.586Z,50
2017-06-01T05:01:07.853Z,50
2017-06-01T05:02:07.838Z,50
2017-06-01T05:03:07.505Z,50
2017-06-01T05:04:07.492Z,50
2017-06-01T05:05:07.792Z,50
2017-06-01T05:06:06.838Z,50
2017-06-01T05:07:07.449Z,50
2017-06-01T05:08:07.762Z,50
2017-06-01T05:09:07.737Z,50
2017-06-01T05:10:07.421Z,50
2017-06-01T05:11:07.464Z,50
2017-06-01T05:12:08.021Z,50
2017-06-01T05:13:07.061Z,55
2017-06-01T05:14:07.361Z,55
2017-06-01T05:15:07.354Z,55
2017-06-01T05:16:07.954Z,55
2017-06-01T05:17:07.315Z,55
2017-06-01T05:18:07.366Z,55
2017-06-01T05:19:06.663Z,55
2017-06-01T05:20:07.282Z,55
2017-06-01T05:21:07.262Z,55
2017-06-01T05:22:06.928Z,55
2017-06-01T05:23:07.228Z,55
2017-06-01T05:24:07.221Z,55
2017-06-01T05:25:07.212Z,55
2017-06-01T05:26:07.508Z,60
2017-06-01T05:27:07.230Z,60
2017-06-01T05:28:07.792Z,60
2017-06-01T05:29:07.158Z,60
2017-06-01T05:30:07.145Z,60
2017-06-01T05:31:07.140Z,60
2017-06-01T05:32:07.425Z,60
2017-06-01T05:33:07.729Z,60
2017-06-01T05:34:07.424Z,60
2017-06-01T05:35:06.821Z,60
2017-06-01T05:36:07.075Z,60
2017-06-01T05:37:07.688Z,60
2017-06-01T05:38:07.036Z,60
2017-06-01T05:39:06.704Z,60
2017-06-01T05:40:06.697Z,60
2017-06-01T05:41:07.005Z,60
2017-06-01T05:42:07.672Z,60
2017-06-01T05:43:06.969Z,60
2017-06-01T05:44:06.653Z,65
2017-06-01T05:45:07.572Z,60
2017-06-01T05:46:07.246Z,60
2017-06-01T05:47:06.927Z,60
2017-06-01T05:48:07.225Z,60
2017-06-01T05:49:07.533Z,60
2017-06-01T05:50:06.570Z,60
2017-06-01T05:51:06.555Z,60
2017-06-01T05:52:07.488Z,60
2017-06-01T05:53:06.851Z,60
2017-06-01T05:54:07.145Z,60
2017-06-01T05:55:07.452Z,60
2017-06-01T05:56:06.803Z,60
2017-06-01T05:57:06.794Z,60
2017-06-01T05:58:07.422Z,65
2017-06-01T05:59:07.087Z,65
2017-06-01T06:00:07.074Z,65
2017-06-01T06:01:06.743Z,65
2017-06-01T06:02:06.472Z,65
2017-06-01T06:03:06.722Z,65
2017-06-01T06:04:07.028Z,65
2017-06-01T06:05:06.379Z,65
2017-06-01T06:06:06.993Z,65
2017-06-01T06:07:06.997Z,85
2017-06-01T06:08:06.972Z,385
2017-06-01T06:09:06.647Z,750
2017-06-01T06:10:06.316Z,880
2017-06-01T06:11:06.622Z,895
2017-06-01T06:12:06.294Z,880
2017-06-01T06:13:06.603Z,845
2017-06-01T06:14:07.218Z,840
2017-06-01T06:15:06.155Z,820
2017-06-01T06:16:06.258Z,860
2017-06-01T06:17:06.589Z,730
2017-06-01T06:18:06.610Z,390
2017-06-01T06:19:06.232Z,105
2017-06-01T06:20:07.157Z,70
2017-06-01T06:21:07.152Z,70
2017-06-01T06:22:06.820Z,70
2017-06-01T06:23:07.130Z,70
2017-06-01T06:24:07.117Z,70
2017-06-01T06:25:06.476Z,70
2017-06-01T06:26:06.779Z,70
2017-06-01T06:27:06.769Z,70
2017-06-01T06:28:06.130Z,70
2017-06-01T06:29:06.752Z,70
2017-06-01T06:30:06.422Z,70
2017-06-01T06:31:06.414Z,70
2017-06-01T06:32:07.035Z,70
2017-06-01T06:33:06.386Z,70
2017-06-01T06:34:06.398Z,70
2017-06-01T06:35:06.686Z,70
2017-06-01T06:36:06.678Z,75
2017-06-01T06:37:06.346Z,75
2017-06-01T06:38:06.651Z,75
2017-06-01T06:39:06.645Z,75
2017-06-01T06:40:06.321Z,75
2017-06-01T06:41:06.313Z,75
2017-06-01T06:42:06.928Z,75
2017-06-01T06:43:06.283Z,75
2017-06-01T06:44:05.959Z,75
2017-06-01T06:45:05.630Z,75
2017-06-01T06:46:06.884Z,175
2017-06-01T06:47:06.555Z,530
2017-06-01T06:48:06.862Z,785
2017-06-01T06:49:05.911Z,855
2017-06-01T06:50:06.222Z,870
2017-06-01T06:51:06.221Z,760
2017-06-01T06:52:05.874Z,720
2017-06-01T06:53:06.495Z,765
2017-06-01T06:54:06.490Z,815
2017-06-01T06:55:05.850Z,710
2017-06-01T06:56:05.838Z,350
2017-06-01T06:57:06.772Z,120
2017-06-01T06:58:06.137Z,100
2017-06-01T06:59:05.810Z,95
2017-06-01T07:00:06.431Z,95
2017-06-01T07:01:06.112Z,105
2017-06-01T07:02:06.094Z,255
2017-06-01T07:03:06.406Z,470
2017-06-01T07:04:06.082Z,525
2017-06-01T07:05:06.076Z,560
2017-06-01T07:06:06.383Z,580
2017-06-01T07:07:06.058Z,485
2017-06-01T07:08:06.363Z,380
2017-06-01T07:09:05.724Z,405
2017-06-01T07:10:06.344Z,455
2017-06-01T07:11:06.331Z,525
2017-06-01T07:12:06.013Z,485
2017-06-01T07:13:06.679Z,350
2017-06-01T07:14:06.317Z,340
2017-06-01T07:15:06.301Z,400
2017-06-01T07:16:05.980Z,450
2017-06-01T07:17:06.292Z,445
2017-06-01T07:18:05.641Z,340
2017-06-01T07:19:06.270Z,290
2017-06-01T07:20:05.950Z,345
2017-06-01T07:21:06.261Z,415
2017-06-01T07:22:05.931Z,475
2017-06-01T07:23:06.245Z,490
2017-06-01T07:24:06.236Z,430
2017-06-01T07:25:06.248Z,555
2017-06-01T07:26:05.597Z,980
2017-06-01T07:27:06.219Z,1380
2017-06-01T07:28:05.912Z,1460
2017-06-01T07:29:05.574Z,1505
2017-06-01T07:30:05.881Z,1525
2017-06-01T07:31:05.888Z,1510
2017-06-01T07:32:05.871Z,1465
2017-06-01T07:33:05.863Z,1440
2017-06-01T07:34:06.224Z,1475
2017-06-01T07:35:06.170Z,1510
2017-06-01T07:36:05.858Z,1525
2017-06-01T07:37:05.545Z,1515
2017-06-01T07:38:05.849Z,1510
2017-06-01T07:39:06.157Z,1540
2017-06-01T07:40:06.161Z,1575
2017-06-01T07:41:05.843Z,1560
2017-06-01T07:42:05.833Z,1560
2017-06-01T07:43:06.457Z,1585
2017-06-01T07:44:06.454Z,1555
2017-06-01T07:45:06.133Z,1540
2017-06-01T07:46:05.819Z,1535
2017-06-01T07:47:06.142Z,1530
2017-06-01T07:48:05.820Z,1570
2017-06-01T07:49:06.131Z,1615
2017-06-01T07:50:06.129Z,1645
2017-06-01T07:51:05.807Z,1640
2017-06-01T07:52:06.450Z,1605
2017-06-01T07:53:06.125Z,1545
2017-06-01T07:54:06.121Z,1550
2017-06-01T07:55:05.818Z,1565
2017-06-01T07:56:05.804Z,1545
2017-06-01T07:57:05.798Z,1545
2017-06-01T07:58:06.115Z,1560
2017-06-01T07:59:06.484Z,1515
2017-06-01T08:00:06.116Z,1515
2017-06-01T08:01:05.796Z,1590
2017-06-01T08:02:05.817Z,1635
2017-06-01T08:03:06.452Z,1680
2017-06-01T08:04:05.546Z,1700
2017-06-01T08:05:05.802Z,1655
2017-06-01T08:06:06.115Z,1560
2017-06-01T08:07:05.795Z,1535
2017-06-01T08:08:05.796Z,1590
2017-06-01T08:09:06.437Z,1610
2017-06-01T08:10:06.104Z,1640
2017-06-01T08:11:06.429Z,1700
2017-06-01T08:12:05.830Z,1715
2017-06-01T08:13:06.107Z,1685
2017-06-01T08:14:05.796Z,1670
2017-06-01T08:15:06.313Z,1655
2017-06-01T08:16:05.859Z,1665
2017-06-01T08:17:05.801Z,1705
2017-06-01T08:18:05.495Z,1755
2017-06-01T08:19:06.127Z,1805
2017-06-01T08:20:06.140Z,1805
2017-06-01T08:21:05.817Z,1805
2017-06-01T08:22:06.435Z,1815
2017-06-01T08:23:05.496Z,1815
2017-06-01T08:24:06.443Z,1805
2017-06-01T08:25:06.166Z,1760
2017-06-01T08:26:05.815Z,1735
2017-06-01T08:27:05.815Z,1750
2017-06-01T08:28:05.821Z,1765
2017-06-01T08:29:05.510Z,1810
2017-06-01T08:30:05.522Z,1855
2017-06-01T08:31:05.826Z,1875
2017-06-01T08:32:06.146Z,1880
2017-06-01T08:33:05.520Z,1880
2017-06-01T08:34:05.828Z,1860
2017-06-01T08:35:06.149Z,1825
2017-06-01T08:36:05.198Z,1825
2017-06-01T08:37:06.148Z,1860
2017-06-01T08:38:06.147Z,1890
2017-06-01T08:39:05.841Z,1875
2017-06-01T08:40:05.841Z,1845
2017-06-01T08:41:05.525Z,1870
2017-06-01T08:42:06.160Z,1900
2017-06-01T08:43:05.844Z,1870
2017-06-01T08:44:06.166Z,1860
2017-06-01T08:45:05.853Z,1860
2017-06-01T08:46:05.858Z,1875
2017-06-01T08:47:06.164Z,1825
2017-06-01T08:48:05.857Z,1615
2017-06-01T08:49:06.171Z,1150
2017-06-01T08:50:05.872Z,875
2017-06-01T08:51:06.185Z,745
2017-06-01T08:52:06.182Z,440
2017-06-01T08:53:05.873Z,440
2017-06-01T08:54:06.187Z,610
2017-06-01T08:55:06.504Z,830
2017-06-01T08:56:05.875Z,785
2017-06-01T08:57:05.879Z,505
2017-06-01T08:58:05.884Z,1050
2017-06-01T08:59:05.566Z,920
2017-06-01T09:00:06.510Z,1565
2017-06-01T09:01:06.513Z,630
2017-06-01T09:02:05.262Z,340
2017-06-01T09:03:05.881Z,420
2017-06-01T09:04:05.878Z,335
2017-06-01T09:05:05.879Z,205
2017-06-01T09:06:05.562Z,300
2017-06-01T09:07:06.199Z,425
2017-06-01T09:08:05.567Z,510
2017-06-01T09:09:06.203Z,215
2017-06-01T09:10:05.565Z,595
2017-06-01T09:11:05.891Z,655
2017-06-01T09:12:06.192Z,880
2017-06-01T09:13:05.246Z,780
2017-06-01T09:14:05.556Z,1035
2017-06-01T09:15:06.507Z,1510
2017-06-01T09:16:06.189Z,1885
2017-06-01T09:17:06.505Z,2005
2017-06-01T09:18:05.871Z,2005
2017-06-01T09:19:05.870Z,2015
2017-06-01T09:20:05.864Z,2000
2017-06-01T09:21:05.553Z,1970
2017-06-01T09:22:05.864Z,1940
2017-06-01T09:23:05.866Z,1915
2017-06-01T09:24:05.873Z,1870
2017-06-01T09:25:06.189Z,1875
2017-06-01T09:26:05.878Z,1920
2017-06-01T09:27:05.561Z,1925
2017-06-01T09:28:05.870Z,1885
2017-06-01T09:29:06.197Z,1865
2017-06-01T09:30:06.185Z,1900
2017-06-01T09:31:06.509Z,1990
2017-06-01T09:32:05.880Z,2085
2017-06-01T09:33:06.193Z,2135
2017-06-01T09:34:06.203Z,2140
2017-06-01T09:35:06.256Z,2145
2017-06-01T09:36:05.893Z,2165
2017-06-01T09:37:05.908Z,2230
2017-06-01T09:38:06.238Z,2200
2017-06-01T09:39:06.224Z,2215
2017-06-01T09:40:06.225Z,2190
2017-06-01T09:41:05.910Z,1805
2017-06-01T09:42:05.918Z,1730
2017-06-01T09:43:05.939Z,1965
2017-06-01T09:44:06.547Z,2175
2017-06-01T09:45:06.233Z,2150
2017-06-01T09:46:05.954Z,2100
2017-06-01T09:47:06.247Z,2055
2017-06-01T09:48:06.325Z,2060
2017-06-01T09:49:05.962Z,2115
2017-06-01T09:50:05.940Z,2175
2017-06-01T09:51:06.571Z,2160
2017-06-01T09:52:06.260Z,2145
2017-06-01T09:53:05.970Z,2115
2017-06-01T09:54:05.630Z,2075
2017-06-01T09:55:05.955Z,2050
2017-06-01T09:56:06.270Z,2070
2017-06-01T09:57:06.297Z,2100
2017-06-01T09:58:06.275Z,2135
2017-06-01T09:59:06.604Z,2120
2017-06-01T10:00:06.018Z,2100
2017-06-01T10:01:06.300Z,2090
2017-06-01T10:02:06.294Z,2125
2017-06-01T10:03:06.303Z,2155
2017-06-01T10:04:06.298Z,2175
2017-06-01T10:05:06.309Z,2180
2017-06-01T10:06:05.674Z,2155
2017-06-01T10:07:06.312Z,2145
2017-06-01T10:08:06.633Z,2155
2017-06-01T10:09:05.370Z,2175
2017-06-01T10:10:06.003Z,2180
2017-06-01T10:11:06.008Z,2185
2017-06-01T10:12:06.328Z,2150
2017-06-01T10:13:05.395Z,2155
2017-06-01T10:14:05.396Z,2150
2017-06-01T10:15:06.342Z,2155
2017-06-01T10:16:06.031Z,2165
2017-06-01T10:17:06.030Z,2145
2017-06-01T10:18:06.350Z,2135
2017-06-01T10:19:05.411Z,2165
2017-06-01T10:20:05.734Z,2230
2017-06-01T10:21:06.050Z,2295
2017-06-01T10:22:06.369Z,2330
2017-06-01T10:23:05.747Z,2340
2017-06-01T10:24:06.382Z,2345
2017-06-01T10:25:06.690Z,2360
2017-06-01T10:26:05.758Z,2360
2017-06-01T10:27:05.765Z,2275
2017-06-01T10:28:06.394Z,2145
2017-06-01T10:29:06.124Z,2075
2017-06-01T10:30:06.093Z,2075
2017-06-01T10:31:05.463Z,2155
2017-06-01T10:32:06.095Z,2160
2017-06-01T10:33:06.104Z,2215
2017-06-01T10:34:06.110Z,2235
2017-06-01T10:35:05.792Z,2255
2017-06-01T10:36:05.799Z,2275
2017-06-01T10:37:06.750Z,2250
2017-06-01T10:38:06.757Z,2165
2017-06-01T10:39:06.136Z,2190
2017-06-01T10:40:06.455Z,2205
2017-06-01T10:41:06.134Z,2195
2017-06-01T10:42:06.143Z,2150
2017-06-01T10:43:06.804Z,2135
2017-06-01T10:44:06.148Z,2165
2017-06-01T10:45:06.159Z,2200
2017-06-01T10:46:06.520Z,2220
2017-06-01T10:47:06.786Z,2100
2017-06-01T10:48:06.164Z,1870
2017-06-01T10:49:05.859Z,1665
2017-06-01T10:50:06.182Z,1625
2017-06-01T10:51:06.177Z,1815
2017-06-01T10:52:06.810Z,2060
2017-06-01T10:53:06.187Z,2225
2017-06-01T10:54:06.510Z,2305
2017-06-01T10:55:06.511Z,2230
2017-06-01T10:56:06.831Z,2210
2017-06-01T10:57:06.206Z,2245
2017-06-01T10:58:05.579Z,2325
2017-06-01T10:59:05.902Z,2405
2017-06-01T11:00:06.530Z,2425
2017-06-01T11:01:05.589Z,2395
2017-06-01T11:02:06.853Z,2385
2017-06-01T11:03:05.923Z,2415
2017-06-01T11:04:06.237Z,2415
2017-06-01T11:05:06.554Z,2380
2017-06-01T11:06:06.554Z,2360
2017-06-01T11:07:05.936Z,2390
2017-06-01T11:08:06.578Z,2415
2017-06-01T11:09:06.252Z,2400
2017-06-01T11:10:06.585Z,2370
2017-06-01T11:11:06.581Z,2370
2017-06-01T11:12:06.272Z,2325
2017-06-01T11:13:06.272Z,2310
2017-06-01T11:14:06.282Z,2280
2017-06-01T11:15:06.284Z,2270
2017-06-01T11:16:06.600Z,2285
2017-06-01T11:17:05.666Z,2325
2017-06-01T11:18:06.301Z,2375
2017-06-01T11:19:06.615Z,2395
2017-06-01T11:20:06.621Z,2380
2017-06-01T11:21:06.312Z,2365
2017-06-01T11:22:06.336Z,2330
2017-06-01T11:23:06.012Z,2355
2017-06-01T11:24:06.338Z,2345
2017-06-01T11:25:06.333Z,2345
2017-06-01T11:26:06.339Z,2285
2017-06-01T11:27:06.337Z,2215
2017-06-01T11:28:06.373Z,2135
2017-06-01T11:29:06.671Z,2050
2017-06-01T11:30:06.668Z,2065
2017-06-01T11:31:06.680Z,2150
2017-06-01T11:32:06.364Z,2235
2017-06-01T11:33:06.371Z,2280
2017-06-01T11:34:06.685Z,2305
2017-06-01T11:35:06.692Z,2360
2017-06-01T11:36:06.393Z,2370
2017-06-01T11:37:06.710Z,2340
2017-06-01T11:38:06.393Z,2240
2017-06-01T11:39:06.717Z,2185
2017-06-01T11:40:06.407Z,2205
2017-06-01T11:41:06.100Z,2245
2017-06-01T11:42:06.420Z,1480
2017-06-01T11:43:06.429Z,2285
2017-06-01T11:44:06.440Z,2255
2017-06-01T11:45:06.432Z,2220
2017-06-01T11:46:06.438Z,2240
2017-06-01T11:47:06.173Z,2270
2017-06-01T11:48:06.439Z,2305
2017-06-01T11:49:05.821Z,2305
2017-06-01T11:50:06.766Z,2275
2017-06-01T11:51:06.464Z,2240
2017-06-01T11:52:06.481Z,2240
2017-06-01T11:53:06.460Z,2220
2017-06-01T11:54:06.159Z,2215
2017-06-01T11:55:06.474Z,2170
2017-06-01T11:56:06.795Z,2060
2017-06-01T11:57:06.810Z,1985
2017-06-01T11:58:06.504Z,1855
2017-06-01T11:59:05.872Z,1865
2017-06-01T12:00:06.189Z,1960
2017-06-01T12:01:06.511Z,2065
2017-06-01T12:02:06.197Z,2135
2017-06-01T12:03:06.831Z,2145
2017-06-01T12:04:06.210Z,2100
2017-06-01T12:05:07.152Z,1990
2017-06-01T12:06:06.534Z,1870
2017-06-01T12:07:06.585Z,1845
2017-06-01T12:08:06.541Z,1955
2017-06-01T12:09:06.542Z,1980
2017-06-01T12:10:06.236Z,1950
2017-06-01T12:11:06.881Z,1975
2017-06-01T12:12:06.885Z,2000
2017-06-01T12:13:06.878Z,2110
2017-06-01T12:14:06.582Z,2205
2017-06-01T12:15:06.811Z,2215
2017-06-01T12:16:06.946Z,2220
2017-06-01T12:17:06.961Z,2200
2017-06-01T12:18:06.590Z,2250
2017-06-01T12:19:06.916Z,2240
2017-06-01T12:20:06.927Z,2195
2017-06-01T12:21:06.943Z,2135
2017-06-01T12:22:06.934Z,2195
2017-06-01T12:23:06.301Z,2270
2017-06-01T12:24:06.621Z,2200
2017-06-01T12:25:06.936Z,2285
2017-06-01T12:26:06.313Z,2305
2017-06-01T12:27:06.645Z,2290
2017-06-01T12:28:06.635Z,2285
2017-06-01T12:29:06.954Z,2255
2017-06-01T12:30:06.647Z,2220
2017-06-01T12:31:06.338Z,2145
2017-06-01T12:32:06.388Z,2120
2017-06-01T12:33:06.348Z,2110
2017-06-01T12:34:07.295Z,2125
2017-06-01T12:35:06.353Z,2120
2017-06-01T12:36:06.674Z,2120
2017-06-01T12:37:06.359Z,2110
2017-06-01T12:38:06.998Z,2055
2017-06-01T12:39:06.705Z,2000
2017-06-01T12:40:07.316Z,1980
2017-06-01T12:41:07.331Z,1995
2017-06-01T12:42:07.014Z,1975
2017-06-01T12:43:06.387Z,2020
2017-06-01T12:44:06.390Z,2035
2017-06-01T12:45:07.024Z,2105
2017-06-01T12:46:07.035Z,1345
2017-06-01T12:47:06.416Z,1805
2017-06-01T12:48:07.038Z,2045
2017-06-01T12:49:06.737Z,2040
2017-06-01T12:50:06.729Z,2020
2017-06-01T12:51:07.373Z,1970
2017-06-01T12:52:06.746Z,1975
2017-06-01T12:53:07.063Z,1975
2017-06-01T12:54:06.755Z,2005
2017-06-01T12:55:07.381Z,885
2017-06-01T12:56:07.071Z,775
2017-06-01T12:57:06.772Z,1765
2017-06-01T12:58:07.392Z,1880
2017-06-01T12:59:07.090Z,1855
2017-06-01T13:00:06.465Z,1840
2017-06-01T13:01:06.812Z,1840
2017-06-01T13:02:06.795Z,1825
2017-06-01T13:03:07.105Z,1855
2017-06-01T13:04:06.795Z,1850
2017-06-01T13:05:06.794Z,1885
2017-06-01T13:06:07.424Z,1890
2017-06-01T13:07:06.795Z,1930
2017-06-01T13:08:06.824Z,1965
2017-06-01T13:09:06.495Z,2010
2017-06-01T13:10:06.502Z,2005
2017-06-01T13:11:07.129Z,1955
2017-06-01T13:12:06.532Z,1890
2017-06-01T13:13:06.516Z,1855
2017-06-01T13:14:06.831Z,1830
2017-06-01T13:15:07.146Z,1820
2017-06-01T13:16:07.473Z,1245
2017-06-01T13:17:07.149Z,1715
2017-06-01T13:18:07.151Z,1830
2017-06-01T13:19:07.469Z,1805
2017-06-01T13:20:07.171Z,1740
2017-06-01T13:21:06.545Z,1695
2017-06-01T13:22:06.866Z,1700
2017-06-01T13:23:07.228Z,1715
2017-06-01T13:24:07.178Z,1745
2017-06-01T13:25:06.564Z,1760
2017-06-01T13:26:06.553Z,1780
2017-06-01T13:27:07.194Z,685
2017-06-01T13:28:06.879Z,1660
2017-06-01T13:29:07.523Z,465
2017-06-01T13:30:06.884Z,515
2017-06-01T13:31:07.198Z,1185
2017-06-01T13:32:06.897Z,1770
2017-06-01T13:33:07.532Z,1750
2017-06-01T13:34:06.587Z,1335
2017-06-01T13:35:06.592Z,620
2017-06-01T13:36:07.541Z,1795
2017-06-01T13:37:07.543Z,1865
2017-06-01T13:38:07.288Z,1695
2017-06-01T13:39:07.242Z,1875
2017-06-01T13:40:06.927Z,1790
2017-06-01T13:41:06.603Z,1725
2017-06-01T13:42:06.920Z,1545
2017-06-01T13:43:07.243Z,1700
2017-06-01T13:44:07.247Z,1800
2017-06-01T13:45:06.622Z,1825
2017-06-01T13:46:06.936Z,1810
2017-06-01T13:47:07.565Z,1720
2017-06-01T13:48:06.939Z,1725
2017-06-01T13:49:07.264Z,850
2017-06-01T13:50:07.570Z,1655
2017-06-01T13:51:06.945Z,1525
2017-06-01T13:52:07.270Z,1400
2017-06-01T13:53:06.945Z,1315
2017-06-01T13:54:06.954Z,1190